sensor_id;sensor_type;location;lat;lon;timestamp;P1;durP1;ratioP1;P2;durP2;ratioP2
24567;SDS011;12731;52.182;8.716;2023-02-11T00:01:46;86.25;;;48.10;;
24567;SDS011;12731;52.182;8.716;2023-02-11T00:04:12;85.63;;;49.90;;
24567;SDS011;12731;52.182;8.716;2023-02-11T00:06:39;90.18;;;51.38;;
24567;SDS011;12731;52.182;8.716;2023-02-11T00:09:05;90.97;;;50.35;;
24567;SDS011;12731;52.182;8.716;2023-02-11T00:11:32;88.60;;;49.80;;
24567;SDS011;12731;52.182;8.716;2023-02-11T00:14:00;84.00;;;50.30;;
24567;SDS011;12731;52.182;8.716;2023-02-11T00:16:27;87.35;;;50.13;;
24567;SDS011;12731;52.182;8.716;2023-02-11T00:18:54;85.32;;;49.45;;
24567;SDS011;12731;52.182;8.716;2023-02-11T00:21:22;81.07;;;48.53;;
24567;SDS011;12731;52.182;8.716;2023-02-11T00:23:50;85.85;;;49.33;;
24567;SDS011;12731;52.182;8.716;2023-02-11T00:28:47;88.07;;;50.83;;
24567;SDS011;12731;52.182;8.716;2023-02-11T00:31:15;84.72;;;48.25;;
24567;SDS011;12731;52.182;8.716;2023-02-11T00:33:43;85.50;;;49.50;;
24567;SDS011;12731;52.182;8.716;2023-02-11T00:36:11;86.65;;;49.65;;
24567;SDS011;12731;52.182;8.716;2023-02-11T00:38:41;84.88;;;49.92;;
24567;SDS011;12731;52.182;8.716;2023-02-11T00:41:08;86.30;;;50.65;;
24567;SDS011;12731;52.182;8.716;2023-02-11T00:43:35;92.50;;;50.80;;
24567;SDS011;12731;52.182;8.716;2023-02-11T00:46:01;91.00;;;52.42;;
24567;SDS011;12731;52.182;8.716;2023-02-11T00:48:28;90.38;;;51.70;;
24567;SDS011;12731;52.182;8.716;2023-02-11T00:50:55;90.47;;;51.78;;
24567;SDS011;12731;52.182;8.716;2023-02-11T00:53:21;84.18;;;50.78;;
24567;SDS011;12731;52.182;8.716;2023-02-11T00:55:48;88.95;;;51.13;;
24567;SDS011;12731;52.182;8.716;2023-02-11T00:58:14;95.43;;;52.22;;
24567;SDS011;12731;52.182;8.716;2023-02-11T01:00:41;93.47;;;52.08;;
24567;SDS011;12731;52.182;8.716;2023-02-11T01:03:07;92.60;;;52.30;;
24567;SDS011;12731;52.182;8.716;2023-02-11T01:05:34;84.05;;;49.78;;
24567;SDS011;12731;52.182;8.716;2023-02-11T01:08:00;84.60;;;49.45;;
24567;SDS011;12731;52.182;8.716;2023-02-11T01:10:28;87.55;;;50.95;;
24567;SDS011;12731;52.182;8.716;2023-02-11T01:12:54;87.20;;;50.30;;
24567;SDS011;12731;52.182;8.716;2023-02-11T01:15:20;87.47;;;50.72;;
24567;SDS011;12731;52.182;8.716;2023-02-11T01:17:47;85.22;;;49.80;;
24567;SDS011;12731;52.182;8.716;2023-02-11T01:20:15;88.18;;;49.33;;
24567;SDS011;12731;52.182;8.716;2023-02-11T01:22:43;83.50;;;49.13;;
24567;SDS011;12731;52.182;8.716;2023-02-11T01:25:09;86.97;;;50.72;;
24567;SDS011;12731;52.182;8.716;2023-02-11T01:27:36;88.10;;;50.45;;
24567;SDS011;12731;52.182;8.716;2023-02-11T01:30:03;84.95;;;50.08;;
24567;SDS011;12731;52.182;8.716;2023-02-11T01:32:31;84.88;;;50.00;;
24567;SDS011;12731;52.182;8.716;2023-02-11T01:34:58;87.00;;;50.78;;
24567;SDS011;12731;52.182;8.716;2023-02-11T01:37:25;85.30;;;50.53;;
24567;SDS011;12731;52.182;8.716;2023-02-11T01:39:51;90.47;;;51.05;;
24567;SDS011;12731;52.182;8.716;2023-02-11T01:42:19;90.13;;;50.70;;
24567;SDS011;12731;52.182;8.716;2023-02-11T01:44:50;79.25;;;47.78;;
24567;SDS011;12731;52.182;8.716;2023-02-11T01:47:18;90.17;;;49.17;;
24567;SDS011;12731;52.182;8.716;2023-02-11T01:49:49;89.22;;;50.92;;
24567;SDS011;12731;52.182;8.716;2023-02-11T01:52:25;90.10;;;50.08;;
24567;SDS011;12731;52.182;8.716;2023-02-11T01:55:01;88.68;;;50.17;;
24567;SDS011;12731;52.182;8.716;2023-02-11T01:57:50;85.50;;;49.60;;
24567;SDS011;12731;52.182;8.716;2023-02-11T02:00:22;84.82;;;48.00;;
24567;SDS011;12731;52.182;8.716;2023-02-11T02:02:54;82.75;;;49.35;;
24567;SDS011;12731;52.182;8.716;2023-02-11T02:08:17;88.47;;;51.70;;
24567;SDS011;12731;52.182;8.716;2023-02-11T02:10:59;92.43;;;51.25;;
24567;SDS011;12731;52.182;8.716;2023-02-11T02:13:26;88.70;;;51.33;;
24567;SDS011;12731;52.182;8.716;2023-02-11T02:15:55;90.95;;;52.08;;
24567;SDS011;12731;52.182;8.716;2023-02-11T02:18:29;94.63;;;52.70;;
24567;SDS011;12731;52.182;8.716;2023-02-11T02:32:26;104.18;;;54.03;;
24567;SDS011;12731;52.182;8.716;2023-02-11T02:38:38;101.97;;;53.80;;
24567;SDS011;12731;52.182;8.716;2023-02-11T02:41:10;99.95;;;55.00;;
24567;SDS011;12731;52.182;8.716;2023-02-11T02:43:39;100.70;;;55.60;;
24567;SDS011;12731;52.182;8.716;2023-02-11T02:46:10;100.72;;;54.63;;
24567;SDS011;12731;52.182;8.716;2023-02-11T02:48:37;104.57;;;56.08;;
24567;SDS011;12731;52.182;8.716;2023-02-11T03:02:26;108.88;;;58.03;;
24567;SDS011;12731;52.182;8.716;2023-02-11T03:05:03;106.25;;;57.40;;
24567;SDS011;12731;52.182;8.716;2023-02-11T03:07:39;111.93;;;58.55;;
24567;SDS011;12731;52.182;8.716;2023-02-11T03:10:15;107.95;;;57.95;;
24567;SDS011;12731;52.182;8.716;2023-02-11T03:12:43;109.13;;;59.58;;
24567;SDS011;12731;52.182;8.716;2023-02-11T03:15:11;110.32;;;57.83;;
24567;SDS011;12731;52.182;8.716;2023-02-11T03:17:40;120.35;;;62.13;;
24567;SDS011;12731;52.182;8.716;2023-02-11T03:20:09;113.82;;;61.10;;
24567;SDS011;12731;52.182;8.716;2023-02-11T03:22:41;105.15;;;59.13;;
24567;SDS011;12731;52.182;8.716;2023-02-11T03:25:13;113.35;;;61.42;;
24567;SDS011;12731;52.182;8.716;2023-02-11T03:27:42;112.65;;;61.03;;
24567;SDS011;12731;52.182;8.716;2023-02-11T03:30:17;112.63;;;60.25;;
24567;SDS011;12731;52.182;8.716;2023-02-11T03:35:27;122.13;;;62.58;;
24567;SDS011;12731;52.182;8.716;2023-02-11T03:40:26;117.95;;;63.90;;
24567;SDS011;12731;52.182;8.716;2023-02-11T03:43:08;115.70;;;62.45;;
24567;SDS011;12731;52.182;8.716;2023-02-11T03:45:38;114.30;;;61.67;;
24567;SDS011;12731;52.182;8.716;2023-02-11T03:48:06;119.30;;;63.20;;
24567;SDS011;12731;52.182;8.716;2023-02-11T03:50:40;116.97;;;62.35;;
24567;SDS011;12731;52.182;8.716;2023-02-11T03:53:07;115.97;;;61.35;;
24567;SDS011;12731;52.182;8.716;2023-02-11T03:55:35;113.95;;;61.15;;
24567;SDS011;12731;52.182;8.716;2023-02-11T03:58:03;107.00;;;59.40;;
24567;SDS011;12731;52.182;8.716;2023-02-11T04:00:31;109.43;;;59.58;;
24567;SDS011;12731;52.182;8.716;2023-02-11T04:03:02;110.18;;;61.13;;
24567;SDS011;12731;52.182;8.716;2023-02-11T04:05:29;105.38;;;58.33;;
24567;SDS011;12731;52.182;8.716;2023-02-11T04:07:56;109.85;;;60.17;;
24567;SDS011;12731;52.182;8.716;2023-02-11T04:10:22;113.28;;;61.22;;
24567;SDS011;12731;52.182;8.716;2023-02-11T04:12:49;114.55;;;60.90;;
24567;SDS011;12731;52.182;8.716;2023-02-11T04:15:16;111.45;;;60.55;;
24567;SDS011;12731;52.182;8.716;2023-02-11T04:17:42;114.32;;;59.47;;
24567;SDS011;12731;52.182;8.716;2023-02-11T04:20:09;112.10;;;62.10;;
24567;SDS011;12731;52.182;8.716;2023-02-11T04:22:36;113.50;;;61.40;;
24567;SDS011;12731;52.182;8.716;2023-02-11T04:25:03;116.80;;;61.90;;
24567;SDS011;12731;52.182;8.716;2023-02-11T04:27:30;114.85;;;62.03;;
24567;SDS011;12731;52.182;8.716;2023-02-11T04:29:56;113.43;;;62.63;;
24567;SDS011;12731;52.182;8.716;2023-02-11T04:32:23;108.45;;;60.42;;
24567;SDS011;12731;52.182;8.716;2023-02-11T04:34:49;118.65;;;62.58;;
24567;SDS011;12731;52.182;8.716;2023-02-11T04:37:17;109.57;;;60.25;;
24567;SDS011;12731;52.182;8.716;2023-02-11T04:39:43;113.05;;;61.47;;
24567;SDS011;12731;52.182;8.716;2023-02-11T04:42:09;111.45;;;60.58;;
24567;SDS011;12731;52.182;8.716;2023-02-11T04:44:36;104.28;;;59.35;;
24567;SDS011;12731;52.182;8.716;2023-02-11T04:47:03;105.88;;;59.47;;
24567;SDS011;12731;52.182;8.716;2023-02-11T04:49:29;104.55;;;59.67;;
24567;SDS011;12731;52.182;8.716;2023-02-11T04:51:55;106.00;;;59.17;;
24567;SDS011;12731;52.182;8.716;2023-02-11T04:54:22;109.78;;;57.67;;
24567;SDS011;12731;52.182;8.716;2023-02-11T04:56:48;100.03;;;57.22;;
24567;SDS011;12731;52.182;8.716;2023-02-11T04:59:16;95.97;;;56.53;;
24567;SDS011;12731;52.182;8.716;2023-02-11T05:01:42;100.45;;;56.70;;
24567;SDS011;12731;52.182;8.716;2023-02-11T05:04:09;93.57;;;54.55;;
24567;SDS011;12731;52.182;8.716;2023-02-11T05:06:36;88.45;;;54.17;;
24567;SDS011;12731;52.182;8.716;2023-02-11T05:09:04;91.20;;;53.22;;
24567;SDS011;12731;52.182;8.716;2023-02-11T05:11:31;96.30;;;52.88;;
24567;SDS011;12731;52.182;8.716;2023-02-11T05:13:57;90.72;;;52.85;;
24567;SDS011;12731;52.182;8.716;2023-02-11T05:16:24;87.70;;;51.03;;
24567;SDS011;12731;52.182;8.716;2023-02-11T05:18:50;82.90;;;49.08;;
24567;SDS011;12731;52.182;8.716;2023-02-11T05:21:18;89.72;;;50.45;;
24567;SDS011;12731;52.182;8.716;2023-02-11T05:23:45;83.38;;;49.00;;
24567;SDS011;12731;52.182;8.716;2023-02-11T05:26:12;78.15;;;47.42;;
24567;SDS011;12731;52.182;8.716;2023-02-11T05:28:39;87.55;;;49.00;;
24567;SDS011;12731;52.182;8.716;2023-02-11T05:31:06;79.15;;;46.15;;
24567;SDS011;12731;52.182;8.716;2023-02-11T05:33:32;80.93;;;46.13;;
24567;SDS011;12731;52.182;8.716;2023-02-11T05:35:59;78.45;;;46.70;;
24567;SDS011;12731;52.182;8.716;2023-02-11T05:38:27;82.10;;;46.80;;
24567;SDS011;12731;52.182;8.716;2023-02-11T05:40:55;80.70;;;46.78;;
24567;SDS011;12731;52.182;8.716;2023-02-11T05:43:22;72.10;;;46.88;;
24567;SDS011;12731;52.182;8.716;2023-02-11T05:45:48;81.88;;;45.90;;
24567;SDS011;12731;52.182;8.716;2023-02-11T05:48:16;73.82;;;42.95;;
24567;SDS011;12731;52.182;8.716;2023-02-11T05:50:42;73.45;;;43.45;;
24567;SDS011;12731;52.182;8.716;2023-02-11T05:53:09;77.00;;;43.80;;
24567;SDS011;12731;52.182;8.716;2023-02-11T05:55:36;68.35;;;43.25;;
24567;SDS011;12731;52.182;8.716;2023-02-11T05:58:04;70.85;;;43.83;;
24567;SDS011;12731;52.182;8.716;2023-02-11T06:00:31;79.65;;;46.22;;
24567;SDS011;12731;52.182;8.716;2023-02-11T06:02:57;72.45;;;44.58;;
24567;SDS011;12731;52.182;8.716;2023-02-11T06:05:24;78.57;;;45.08;;
24567;SDS011;12731;52.182;8.716;2023-02-11T06:07:51;76.72;;;43.15;;
24567;SDS011;12731;52.182;8.716;2023-02-11T06:10:17;75.63;;;43.22;;
24567;SDS011;12731;52.182;8.716;2023-02-11T06:12:44;71.10;;;42.35;;
24567;SDS011;12731;52.182;8.716;2023-02-11T06:15:10;77.35;;;44.58;;
24567;SDS011;12731;52.182;8.716;2023-02-11T06:17:36;80.53;;;43.03;;
24567;SDS011;12731;52.182;8.716;2023-02-11T06:20:04;73.95;;;45.75;;
24567;SDS011;12731;52.182;8.716;2023-02-11T06:22:32;75.72;;;45.10;;
24567;SDS011;12731;52.182;8.716;2023-02-11T06:25:00;78.45;;;45.08;;
24567;SDS011;12731;52.182;8.716;2023-02-11T06:27:27;78.07;;;44.35;;
24567;SDS011;12731;52.182;8.716;2023-02-11T06:29:54;76.60;;;44.13;;
24567;SDS011;12731;52.182;8.716;2023-02-11T06:32:21;78.38;;;45.55;;
24567;SDS011;12731;52.182;8.716;2023-02-11T06:35:07;73.43;;;43.50;;
24567;SDS011;12731;52.182;8.716;2023-02-11T06:37:37;74.50;;;45.03;;
24567;SDS011;12731;52.182;8.716;2023-02-11T06:40:03;75.47;;;44.72;;
24567;SDS011;12731;52.182;8.716;2023-02-11T06:42:30;74.22;;;43.53;;
24567;SDS011;12731;52.182;8.716;2023-02-11T06:44:57;75.60;;;43.95;;
24567;SDS011;12731;52.182;8.716;2023-02-11T06:47:23;77.68;;;43.28;;
24567;SDS011;12731;52.182;8.716;2023-02-11T06:49:50;81.43;;;45.13;;
24567;SDS011;12731;52.182;8.716;2023-02-11T06:52:16;77.50;;;45.95;;
24567;SDS011;12731;52.182;8.716;2023-02-11T06:54:43;77.18;;;44.83;;
24567;SDS011;12731;52.182;8.716;2023-02-11T06:57:09;84.03;;;45.88;;
24567;SDS011;12731;52.182;8.716;2023-02-11T06:59:36;76.75;;;45.10;;
24567;SDS011;12731;52.182;8.716;2023-02-11T07:02:02;85.00;;;45.72;;
24567;SDS011;12731;52.182;8.716;2023-02-11T07:04:29;81.22;;;46.42;;
24567;SDS011;12731;52.182;8.716;2023-02-11T07:06:55;75.30;;;44.78;;
24567;SDS011;12731;52.182;8.716;2023-02-11T07:09:22;88.68;;;46.78;;
24567;SDS011;12731;52.182;8.716;2023-02-11T07:11:48;76.38;;;46.38;;
24567;SDS011;12731;52.182;8.716;2023-02-11T07:14:15;84.47;;;46.67;;
24567;SDS011;12731;52.182;8.716;2023-02-11T07:16:41;81.80;;;45.72;;
24567;SDS011;12731;52.182;8.716;2023-02-11T07:19:08;85.68;;;47.35;;
24567;SDS011;12731;52.182;8.716;2023-02-11T07:21:34;79.00;;;45.55;;
24567;SDS011;12731;52.182;8.716;2023-02-11T07:24:01;82.03;;;48.70;;
24567;SDS011;12731;52.182;8.716;2023-02-11T07:26:27;85.47;;;49.15;;
24567;SDS011;12731;52.182;8.716;2023-02-11T07:28:56;89.88;;;48.13;;
24567;SDS011;12731;52.182;8.716;2023-02-11T07:31:24;86.60;;;48.25;;
24567;SDS011;12731;52.182;8.716;2023-02-11T07:33:52;78.18;;;45.83;;
24567;SDS011;12731;52.182;8.716;2023-02-11T07:36:20;81.00;;;46.80;;
24567;SDS011;12731;52.182;8.716;2023-02-11T07:38:47;84.53;;;47.97;;
24567;SDS011;12731;52.182;8.716;2023-02-11T07:41:15;84.97;;;47.90;;
24567;SDS011;12731;52.182;8.716;2023-02-11T07:43:43;84.93;;;49.72;;
24567;SDS011;12731;52.182;8.716;2023-02-11T07:46:12;86.10;;;47.67;;
24567;SDS011;12731;52.182;8.716;2023-02-11T07:48:43;82.93;;;47.85;;
24567;SDS011;12731;52.182;8.716;2023-02-11T07:51:20;83.25;;;48.58;;
24567;SDS011;12731;52.182;8.716;2023-02-11T07:53:50;85.25;;;47.92;;
24567;SDS011;12731;52.182;8.716;2023-02-11T07:56:17;92.32;;;49.05;;
24567;SDS011;12731;52.182;8.716;2023-02-11T07:58:45;85.55;;;47.17;;
24567;SDS011;12731;52.182;8.716;2023-02-11T08:01:13;82.90;;;48.92;;
24567;SDS011;12731;52.182;8.716;2023-02-11T08:03:41;88.15;;;48.20;;
24567;SDS011;12731;52.182;8.716;2023-02-11T08:06:12;85.03;;;48.45;;
24567;SDS011;12731;52.182;8.716;2023-02-11T08:08:40;85.75;;;48.90;;
24567;SDS011;12731;52.182;8.716;2023-02-11T08:11:07;87.15;;;49.15;;
24567;SDS011;12731;52.182;8.716;2023-02-11T08:13:35;86.93;;;49.08;;
24567;SDS011;12731;52.182;8.716;2023-02-11T08:16:02;92.88;;;50.72;;
24567;SDS011;12731;52.182;8.716;2023-02-11T08:18:29;91.22;;;50.15;;
24567;SDS011;12731;52.182;8.716;2023-02-11T08:21:02;89.20;;;48.92;;
24567;SDS011;12731;52.182;8.716;2023-02-11T08:23:30;91.82;;;49.45;;
24567;SDS011;12731;52.182;8.716;2023-02-11T08:26:00;87.53;;;48.55;;
24567;SDS011;12731;52.182;8.716;2023-02-11T08:28:34;94.85;;;51.50;;
24567;SDS011;12731;52.182;8.716;2023-02-11T08:31:05;92.70;;;50.15;;
24567;SDS011;12731;52.182;8.716;2023-02-11T08:33:33;95.70;;;52.08;;
24567;SDS011;12731;52.182;8.716;2023-02-11T08:35:59;90.10;;;52.15;;
24567;SDS011;12731;52.182;8.716;2023-02-11T08:38:26;99.28;;;49.13;;
24567;SDS011;12731;52.182;8.716;2023-02-11T08:40:52;97.38;;;51.05;;
24567;SDS011;12731;52.182;8.716;2023-02-11T08:43:19;103.63;;;52.17;;
24567;SDS011;12731;52.182;8.716;2023-02-11T08:45:45;92.57;;;51.45;;
24567;SDS011;12731;52.182;8.716;2023-02-11T08:48:12;99.20;;;50.83;;
24567;SDS011;12731;52.182;8.716;2023-02-11T08:50:38;100.45;;;52.97;;
24567;SDS011;12731;52.182;8.716;2023-02-11T08:53:05;93.53;;;51.53;;
24567;SDS011;12731;52.182;8.716;2023-02-11T08:55:32;99.80;;;52.22;;
24567;SDS011;12731;52.182;8.716;2023-02-11T08:57:58;95.55;;;51.28;;
24567;SDS011;12731;52.182;8.716;2023-02-11T09:00:24;95.38;;;49.85;;
24567;SDS011;12731;52.182;8.716;2023-02-11T09:02:51;100.50;;;51.67;;
24567;SDS011;12731;52.182;8.716;2023-02-11T09:05:17;100.95;;;52.20;;
24567;SDS011;12731;52.182;8.716;2023-02-11T09:07:44;90.88;;;52.13;;
24567;SDS011;12731;52.182;8.716;2023-02-11T09:10:10;90.93;;;50.95;;
24567;SDS011;12731;52.182;8.716;2023-02-11T09:12:37;102.13;;;52.58;;
24567;SDS011;12731;52.182;8.716;2023-02-11T09:15:03;99.28;;;52.35;;
24567;SDS011;12731;52.182;8.716;2023-02-11T09:17:30;107.97;;;54.00;;
24567;SDS011;12731;52.182;8.716;2023-02-11T09:19:56;100.53;;;52.85;;
24567;SDS011;12731;52.182;8.716;2023-02-11T09:22:23;98.32;;;52.70;;
24567;SDS011;12731;52.182;8.716;2023-02-11T09:24:49;98.95;;;51.38;;
24567;SDS011;12731;52.182;8.716;2023-02-11T09:27:16;109.35;;;53.47;;
24567;SDS011;12731;52.182;8.716;2023-02-11T09:29:42;97.00;;;52.95;;
24567;SDS011;12731;52.182;8.716;2023-02-11T09:32:08;103.13;;;53.63;;
24567;SDS011;12731;52.182;8.716;2023-02-11T09:34:35;102.10;;;53.75;;
24567;SDS011;12731;52.182;8.716;2023-02-11T09:37:01;104.95;;;53.92;;
24567;SDS011;12731;52.182;8.716;2023-02-11T09:39:28;107.28;;;51.90;;
24567;SDS011;12731;52.182;8.716;2023-02-11T09:42:19;95.47;;;50.97;;
24567;SDS011;12731;52.182;8.716;2023-02-11T09:44:57;102.27;;;52.30;;
24567;SDS011;12731;52.182;8.716;2023-02-11T09:47:27;96.45;;;51.15;;
24567;SDS011;12731;52.182;8.716;2023-02-11T09:50:06;96.60;;;50.38;;
24567;SDS011;12731;52.182;8.716;2023-02-11T09:52:46;101.95;;;51.13;;
24567;SDS011;12731;52.182;8.716;2023-02-11T09:55:27;99.03;;;49.67;;
24567;SDS011;12731;52.182;8.716;2023-02-11T09:57:54;100.55;;;51.45;;
24567;SDS011;12731;52.182;8.716;2023-02-11T10:00:23;107.78;;;53.28;;
24567;SDS011;12731;52.182;8.716;2023-02-11T10:03:05;100.07;;;53.73;;
24567;SDS011;12731;52.182;8.716;2023-02-11T10:11:11;101.78;;;53.33;;
24567;SDS011;12731;52.182;8.716;2023-02-11T10:14:00;102.28;;;53.85;;
24567;SDS011;12731;52.182;8.716;2023-02-11T10:16:41;109.63;;;54.88;;
24567;SDS011;12731;52.182;8.716;2023-02-11T10:19:31;100.10;;;54.47;;
24567;SDS011;12731;52.182;8.716;2023-02-11T10:25:26;114.32;;;54.45;;
24567;SDS011;12731;52.182;8.716;2023-02-11T10:27:54;106.38;;;55.60;;
24567;SDS011;12731;52.182;8.716;2023-02-11T10:30:25;107.82;;;56.47;;
24567;SDS011;12731;52.182;8.716;2023-02-11T10:32:56;92.72;;;44.97;;
24567;SDS011;12731;52.182;8.716;2023-02-11T10:35:26;120.53;;;58.07;;
24567;SDS011;12731;52.182;8.716;2023-02-11T10:37:53;116.93;;;58.15;;
24567;SDS011;12731;52.182;8.716;2023-02-11T10:40:22;109.10;;;57.65;;
24567;SDS011;12731;52.182;8.716;2023-02-11T10:42:52;117.95;;;58.90;;
24567;SDS011;12731;52.182;8.716;2023-02-11T10:45:22;118.47;;;58.22;;
24567;SDS011;12731;52.182;8.716;2023-02-11T10:47:51;118.60;;;60.15;;
24567;SDS011;12731;52.182;8.716;2023-02-11T10:52:47;117.88;;;59.88;;
24567;SDS011;12731;52.182;8.716;2023-02-11T10:55:15;124.32;;;60.42;;
24567;SDS011;12731;52.182;8.716;2023-02-11T10:57:54;116.03;;;60.22;;
24567;SDS011;12731;52.182;8.716;2023-02-11T11:00:29;121.30;;;59.75;;
24567;SDS011;12731;52.182;8.716;2023-02-11T11:03:05;121.25;;;60.45;;
24567;SDS011;12731;52.182;8.716;2023-02-11T11:05:47;124.80;;;60.15;;
24567;SDS011;12731;52.182;8.716;2023-02-11T11:08:15;124.25;;;61.28;;
24567;SDS011;12731;52.182;8.716;2023-02-11T11:10:43;121.00;;;61.00;;
24567;SDS011;12731;52.182;8.716;2023-02-11T11:13:31;124.43;;;58.65;;
24567;SDS011;12731;52.182;8.716;2023-02-11T11:18:37;117.47;;;59.25;;
24567;SDS011;12731;52.182;8.716;2023-02-11T11:21:05;116.43;;;57.28;;
24567;SDS011;12731;52.182;8.716;2023-02-11T11:23:57;109.65;;;55.72;;
24567;SDS011;12731;52.182;8.716;2023-02-11T11:26:25;106.18;;;53.13;;
24567;SDS011;12731;52.182;8.716;2023-02-11T11:28:55;112.30;;;55.40;;
24567;SDS011;12731;52.182;8.716;2023-02-11T11:31:24;107.10;;;54.25;;
24567;SDS011;12731;52.182;8.716;2023-02-11T11:33:54;107.57;;;54.78;;
24567;SDS011;12731;52.182;8.716;2023-02-11T11:36:29;105.75;;;52.92;;
24567;SDS011;12731;52.182;8.716;2023-02-11T11:38:59;96.20;;;50.83;;
24567;SDS011;12731;52.182;8.716;2023-02-11T11:41:32;87.10;;;49.00;;
24567;SDS011;12731;52.182;8.716;2023-02-11T11:44:11;89.78;;;48.65;;
24567;SDS011;12731;52.182;8.716;2023-02-11T11:46:46;85.47;;;46.28;;
24567;SDS011;12731;52.182;8.716;2023-02-11T11:49:23;78.35;;;43.95;;
24567;SDS011;12731;52.182;8.716;2023-02-11T11:54:45;85.30;;;46.30;;
24567;SDS011;12731;52.182;8.716;2023-02-11T11:57:17;80.13;;;44.00;;
24567;SDS011;12731;52.182;8.716;2023-02-11T11:59:47;75.90;;;43.38;;
24567;SDS011;12731;52.182;8.716;2023-02-11T12:08:02;72.85;;;42.28;;
24567;SDS011;12731;52.182;8.716;2023-02-11T12:10:50;70.40;;;40.45;;
24567;SDS011;12731;52.182;8.716;2023-02-11T12:16:02;64.38;;;38.20;;
24567;SDS011;12731;52.182;8.716;2023-02-11T12:21:58;67.18;;;40.10;;
24567;SDS011;12731;52.182;8.716;2023-02-11T12:30:12;71.15;;;39.25;;
24567;SDS011;12731;52.182;8.716;2023-02-11T12:38:15;68.20;;;40.00;;
24567;SDS011;12731;52.182;8.716;2023-02-11T12:55:44;77.78;;;41.47;;
24567;SDS011;12731;52.182;8.716;2023-02-11T12:58:16;77.20;;;41.08;;
24567;SDS011;12731;52.182;8.716;2023-02-11T13:00:46;73.90;;;41.63;;
24567;SDS011;12731;52.182;8.716;2023-02-11T13:03:19;82.93;;;40.92;;
24567;SDS011;12731;52.182;8.716;2023-02-11T13:05:59;75.10;;;40.78;;
24567;SDS011;12731;52.182;8.716;2023-02-11T13:08:30;76.88;;;41.53;;
24567;SDS011;12731;52.182;8.716;2023-02-11T13:11:00;72.28;;;40.65;;
24567;SDS011;12731;52.182;8.716;2023-02-11T13:16:03;75.28;;;40.55;;
24567;SDS011;12731;52.182;8.716;2023-02-11T13:18:42;76.72;;;41.13;;
24567;SDS011;12731;52.182;8.716;2023-02-11T13:23:54;74.22;;;40.35;;
24567;SDS011;12731;52.182;8.716;2023-02-11T13:29:48;73.72;;;39.97;;
24567;SDS011;12731;52.182;8.716;2023-02-11T13:33:01;74.72;;;39.72;;
24567;SDS011;12731;52.182;8.716;2023-02-11T13:35:26;74.75;;;39.55;;
24567;SDS011;12731;52.182;8.716;2023-02-11T13:37:55;73.43;;;40.00;;
24567;SDS011;12731;52.182;8.716;2023-02-11T13:40:24;72.78;;;39.33;;
24567;SDS011;12731;52.182;8.716;2023-02-11T13:42:52;68.03;;;38.63;;
24567;SDS011;12731;52.182;8.716;2023-02-11T13:47:55;70.70;;;39.33;;
24567;SDS011;12731;52.182;8.716;2023-02-11T13:50:23;67.15;;;39.20;;
24567;SDS011;12731;52.182;8.716;2023-02-11T13:53:00;70.40;;;39.80;;
24567;SDS011;12731;52.182;8.716;2023-02-11T13:55:28;68.40;;;39.25;;
24567;SDS011;12731;52.182;8.716;2023-02-11T14:06:37;71.28;;;38.45;;
24567;SDS011;12731;52.182;8.716;2023-02-11T14:11:42;67.47;;;37.60;;
24567;SDS011;12731;52.182;8.716;2023-02-11T14:19:30;98.53;;;52.85;;
24567;SDS011;12731;52.182;8.716;2023-02-11T14:22:03;77.07;;;43.45;;
24567;SDS011;12731;52.182;8.716;2023-02-11T14:24:52;71.43;;;41.22;;
24567;SDS011;12731;52.182;8.716;2023-02-11T14:27:23;109.28;;;54.92;;
24567;SDS011;12731;52.182;8.716;2023-02-11T14:33:18;76.97;;;43.47;;
24567;SDS011;12731;52.182;8.716;2023-02-11T14:38:17;83.80;;;44.25;;
24567;SDS011;12731;52.182;8.716;2023-02-11T14:43:58;71.57;;;40.15;;
24567;SDS011;12731;52.182;8.716;2023-02-11T14:46:27;89.60;;;47.70;;
24567;SDS011;12731;52.182;8.716;2023-02-11T14:48:59;81.88;;;46.40;;
24567;SDS011;12731;52.182;8.716;2023-02-11T14:51:31;89.80;;;46.28;;
24567;SDS011;12731;52.182;8.716;2023-02-11T14:54:17;68.50;;;40.05;;
24567;SDS011;12731;52.182;8.716;2023-02-11T14:59:54;73.82;;;38.90;;
24567;SDS011;12731;52.182;8.716;2023-02-11T15:02:27;71.03;;;38.50;;
24567;SDS011;12731;52.182;8.716;2023-02-11T15:05:13;72.32;;;39.55;;
24567;SDS011;12731;52.182;8.716;2023-02-11T15:07:44;72.25;;;39.33;;
24567;SDS011;12731;52.182;8.716;2023-02-11T15:10:24;68.60;;;39.65;;
24567;SDS011;12731;52.182;8.716;2023-02-11T15:12:54;71.00;;;39.50;;
24567;SDS011;12731;52.182;8.716;2023-02-11T15:15:21;76.38;;;41.15;;
24567;SDS011;12731;52.182;8.716;2023-02-11T15:17:48;72.15;;;41.15;;
24567;SDS011;12731;52.182;8.716;2023-02-11T15:20:21;73.10;;;38.53;;
24567;SDS011;12731;52.182;8.716;2023-02-11T15:22:56;66.90;;;39.58;;
24567;SDS011;12731;52.182;8.716;2023-02-11T15:25:26;62.67;;;38.38;;
24567;SDS011;12731;52.182;8.716;2023-02-11T15:27:55;74.28;;;38.78;;
24567;SDS011;12731;52.182;8.716;2023-02-11T15:32:54;68.18;;;41.08;;
24567;SDS011;12731;52.182;8.716;2023-02-11T15:35:30;69.88;;;41.15;;
24567;SDS011;12731;52.182;8.716;2023-02-11T15:38:00;69.45;;;39.38;;
24567;SDS011;12731;52.182;8.716;2023-02-11T15:40:29;68.75;;;39.15;;
24567;SDS011;12731;52.182;8.716;2023-02-11T15:43:05;63.08;;;37.15;;
24567;SDS011;12731;52.182;8.716;2023-02-11T15:48:35;71.05;;;39.60;;
24567;SDS011;12731;52.182;8.716;2023-02-11T15:53:39;57.90;;;36.78;;
24567;SDS011;12731;52.182;8.716;2023-02-11T15:56:14;66.95;;;37.95;;
24567;SDS011;12731;52.182;8.716;2023-02-11T15:58:44;61.63;;;37.78;;
24567;SDS011;12731;52.182;8.716;2023-02-11T16:01:12;61.95;;;39.05;;
24567;SDS011;12731;52.182;8.716;2023-02-11T16:03:39;60.90;;;37.63;;
24567;SDS011;12731;52.182;8.716;2023-02-11T16:06:23;63.90;;;39.03;;
24567;SDS011;12731;52.182;8.716;2023-02-11T16:08:55;60.00;;;36.22;;
24567;SDS011;12731;52.182;8.716;2023-02-11T16:14:22;59.80;;;37.17;;
24567;SDS011;12731;52.182;8.716;2023-02-11T16:16:57;62.22;;;37.17;;
24567;SDS011;12731;52.182;8.716;2023-02-11T16:19:44;61.28;;;37.35;;
24567;SDS011;12731;52.182;8.716;2023-02-11T16:22:16;64.28;;;35.83;;
24567;SDS011;12731;52.182;8.716;2023-02-11T16:24:51;62.08;;;36.75;;
24567;SDS011;12731;52.182;8.716;2023-02-11T16:27:20;55.53;;;35.67;;
24567;SDS011;12731;52.182;8.716;2023-02-11T16:29:48;63.55;;;36.95;;
24567;SDS011;12731;52.182;8.716;2023-02-11T16:32:17;60.28;;;36.67;;
24567;SDS011;12731;52.182;8.716;2023-02-11T16:34:48;40.97;;;26.80;;
24567;SDS011;12731;52.182;8.716;2023-02-11T16:37:14;68.03;;;38.05;;
24567;SDS011;12731;52.182;8.716;2023-02-11T16:39:41;65.88;;;39.67;;
24567;SDS011;12731;52.182;8.716;2023-02-11T16:42:08;61.38;;;38.13;;
24567;SDS011;12731;52.182;8.716;2023-02-11T16:44:36;64.10;;;37.42;;
24567;SDS011;12731;52.182;8.716;2023-02-11T16:47:03;64.32;;;38.80;;
24567;SDS011;12731;52.182;8.716;2023-02-11T16:49:36;63.00;;;37.88;;
24567;SDS011;12731;52.182;8.716;2023-02-11T16:52:07;67.45;;;38.95;;
24567;SDS011;12731;52.182;8.716;2023-02-11T16:54:37;61.90;;;37.90;;
24567;SDS011;12731;52.182;8.716;2023-02-11T16:57:07;63.85;;;39.00;;